sensor_id;sensor_type;location;lat;lon;timestamp;temperature;humidity
46159;DHT22;31888;44.512;26.104;2022-07-19T00:00:36;20.10;68.50
46159;DHT22;31888;44.512;26.104;2022-07-19T00:02:41;20.10;68.50
46159;DHT22;31888;44.512;26.104;2022-07-19T00:04:45;20.00;68.70
46159;DHT22;31888;44.512;26.104;2022-07-19T00:06:51;20.00;68.60
46159;DHT22;31888;44.512;26.104;2022-07-19T00:08:58;20.00;68.70
46159;DHT22;31888;44.512;26.104;2022-07-19T00:11:03;20.00;68.60
46159;DHT22;31888;44.512;26.104;2022-07-19T00:13:07;19.90;68.60
46159;DHT22;31888;44.512;26.104;2022-07-19T00:15:13;20.00;68.20
46159;DHT22;31888;44.512;26.104;2022-07-19T00:17:18;19.90;68.30
46159;DHT22;31888;44.512;26.104;2022-07-19T00:19:22;19.80;68.50
46159;DHT22;31888;44.512;26.104;2022-07-19T00:21:27;19.90;68.70
46159;DHT22;31888;44.512;26.104;2022-07-19T00:23:34;19.90;68.10
46159;DHT22;31888;44.512;26.104;2022-07-19T00:25:39;19.70;68.80
46159;DHT22;31888;44.512;26.104;2022-07-19T00:27:44;19.70;68.70
46159;DHT22;31888;44.512;26.104;2022-07-19T00:29:49;19.60;68.60
46159;DHT22;31888;44.512;26.104;2022-07-19T00:31:53;19.70;68.80
46159;DHT22;31888;44.512;26.104;2022-07-19T00:33:58;19.70;68.50
46159;DHT22;31888;44.512;26.104;2022-07-19T00:36:03;19.60;69.30
46159;DHT22;31888;44.512;26.104;2022-07-19T00:38:09;19.60;69.30
46159;DHT22;31888;44.512;26.104;2022-07-19T00:40:20;19.50;69.70
46159;DHT22;31888;44.512;26.104;2022-07-19T00:42:25;19.50;69.80
46159;DHT22;31888;44.512;26.104;2022-07-19T00:44:30;19.70;69.30
46159;DHT22;31888;44.512;26.104;2022-07-19T00:46:36;19.70;69.30
46159;DHT22;31888;44.512;26.104;2022-07-19T00:48:41;19.70;69.10
46159;DHT22;31888;44.512;26.104;2022-07-19T00:50:45;19.70;69.10
46159;DHT22;31888;44.512;26.104;2022-07-19T00:52:51;19.70;68.90
46159;DHT22;31888;44.512;26.104;2022-07-19T00:54:56;19.70;69.20
46159;DHT22;31888;44.512;26.104;2022-07-19T00:57:06;19.60;69.50
46159;DHT22;31888;44.512;26.104;2022-07-19T00:59:12;19.60;69.50
46159;DHT22;31888;44.512;26.104;2022-07-19T01:01:17;19.50;69.50
46159;DHT22;31888;44.512;26.104;2022-07-19T01:03:24;19.40;69.70
46159;DHT22;31888;44.512;26.104;2022-07-19T01:05:29;19.30;70.20
46159;DHT22;31888;44.512;26.104;2022-07-19T01:07:34;19.30;70.10
46159;DHT22;31888;44.512;26.104;2022-07-19T01:09:40;19.30;70.40
46159;DHT22;31888;44.512;26.104;2022-07-19T01:11:46;19.20;70.00
46159;DHT22;31888;44.512;26.104;2022-07-19T01:13:52;19.10;70.40
46159;DHT22;31888;44.512;26.104;2022-07-19T01:15:57;19.10;70.90
46159;DHT22;31888;44.512;26.104;2022-07-19T01:18:01;19.30;70.10
46159;DHT22;31888;44.512;26.104;2022-07-19T01:20:07;19.40;69.80
46159;DHT22;31888;44.512;26.104;2022-07-19T01:22:13;19.40;70.00
46159;DHT22;31888;44.512;26.104;2022-07-19T01:24:18;19.30;69.60
46159;DHT22;31888;44.512;26.104;2022-07-19T01:26:22;19.40;69.50
46159;DHT22;31888;44.512;26.104;2022-07-19T01:28:27;19.40;69.40
46159;DHT22;31888;44.512;26.104;2022-07-19T01:30:33;19.30;69.40
46159;DHT22;31888;44.512;26.104;2022-07-19T01:32:37;19.00;69.80
46159;DHT22;31888;44.512;26.104;2022-07-19T01:34:42;19.00;69.70
46159;DHT22;31888;44.512;26.104;2022-07-19T01:36:47;19.00;70.10
46159;DHT22;31888;44.512;26.104;2022-07-19T01:38:53;19.00;70.10
46159;DHT22;31888;44.512;26.104;2022-07-19T01:40:58;18.90;70.00
46159;DHT22;31888;44.512;26.104;2022-07-19T01:43:02;18.90;70.10
46159;DHT22;31888;44.512;26.104;2022-07-19T01:45:08;18.80;70.40
46159;DHT22;31888;44.512;26.104;2022-07-19T01:47:13;18.70;70.50
46159;DHT22;31888;44.512;26.104;2022-07-19T01:49:17;18.70;70.40
46159;DHT22;31888;44.512;26.104;2022-07-19T01:51:22;18.70;70.60
46159;DHT22;31888;44.512;26.104;2022-07-19T01:53:26;18.90;70.10
46159;DHT22;31888;44.512;26.104;2022-07-19T01:55:33;19.10;70.70
46159;DHT22;31888;44.512;26.104;2022-07-19T01:57:37;19.40;69.60
46159;DHT22;31888;44.512;26.104;2022-07-19T01:59:41;19.50;70.10
46159;DHT22;31888;44.512;26.104;2022-07-19T02:01:46;19.80;68.70
46159;DHT22;31888;44.512;26.104;2022-07-19T02:03:50;19.70;67.80
46159;DHT22;31888;44.512;26.104;2022-07-19T02:05:55;19.50;66.90
46159;DHT22;31888;44.512;26.104;2022-07-19T02:08:00;19.40;67.50
46159;DHT22;31888;44.512;26.104;2022-07-19T02:10:07;19.50;67.70
46159;DHT22;31888;44.512;26.104;2022-07-19T02:12:13;19.50;68.30
46159;DHT22;31888;44.512;26.104;2022-07-19T02:14:18;19.50;68.30
46159;DHT22;31888;44.512;26.104;2022-07-19T02:16:23;19.70;68.90
46159;DHT22;31888;44.512;26.104;2022-07-19T02:18:27;19.70;67.80
46159;DHT22;31888;44.512;26.104;2022-07-19T02:20:32;19.70;67.60
46159;DHT22;31888;44.512;26.104;2022-07-19T02:22:38;19.50;68.10
46159;DHT22;31888;44.512;26.104;2022-07-19T02:24:43;19.30;68.90
46159;DHT22;31888;44.512;26.104;2022-07-19T02:26:47;19.20;69.50
46159;DHT22;31888;44.512;26.104;2022-07-19T02:29:06;19.10;69.70
46159;DHT22;31888;44.512;26.104;2022-07-19T02:31:11;19.10;69.90
46159;DHT22;31888;44.512;26.104;2022-07-19T02:33:15;19.10;69.80
46159;DHT22;31888;44.512;26.104;2022-07-19T02:35:23;19.00;69.70
46159;DHT22;31888;44.512;26.104;2022-07-19T02:37:28;18.70;69.90
46159;DHT22;31888;44.512;26.104;2022-07-19T02:39:32;18.60;70.40
46159;DHT22;31888;44.512;26.104;2022-07-19T02:41:37;18.60;70.10
46159;DHT22;31888;44.512;26.104;2022-07-19T02:43:41;18.50;70.40
46159;DHT22;31888;44.512;26.104;2022-07-19T02:45:47;18.50;70.40
46159;DHT22;31888;44.512;26.104;2022-07-19T02:47:52;18.50;70.20
46159;DHT22;31888;44.512;26.104;2022-07-19T02:49:56;18.40;70.70
46159;DHT22;31888;44.512;26.104;2022-07-19T02:52:01;18.40;70.70
46159;DHT22;31888;44.512;26.104;2022-07-19T02:54:05;18.50;70.40
46159;DHT22;31888;44.512;26.104;2022-07-19T02:56:10;18.50;70.50
46159;DHT22;31888;44.512;26.104;2022-07-19T02:58:14;18.60;70.50
46159;DHT22;31888;44.512;26.104;2022-07-19T03:00:19;18.60;70.70
46159;DHT22;31888;44.512;26.104;2022-07-19T03:02:25;18.50;71.00
46159;DHT22;31888;44.512;26.104;2022-07-19T03:04:29;18.40;71.60
46159;DHT22;31888;44.512;26.104;2022-07-19T03:06:34;18.50;71.40
46159;DHT22;31888;44.512;26.104;2022-07-19T03:08:40;18.70;71.00
46159;DHT22;31888;44.512;26.104;2022-07-19T03:10:45;18.80;70.60
46159;DHT22;31888;44.512;26.104;2022-07-19T03:12:50;19.10;70.30
46159;DHT22;31888;44.512;26.104;2022-07-19T03:14:54;19.40;69.40
46159;DHT22;31888;44.512;26.104;2022-07-19T03:16:59;19.60;68.90
46159;DHT22;31888;44.512;26.104;2022-07-19T03:19:04;19.80;68.70
46159;DHT22;31888;44.512;26.104;2022-07-19T03:21:11;20.20;68.20
46159;DHT22;31888;44.512;26.104;2022-07-19T03:23:15;20.60;67.20
46159;DHT22;31888;44.512;26.104;2022-07-19T03:25:20;21.20;65.80
46159;DHT22;31888;44.512;26.104;2022-07-19T03:27:28;21.70;65.20
46159;DHT22;31888;44.512;26.104;2022-07-19T03:29:32;22.00;64.40
46159;DHT22;31888;44.512;26.104;2022-07-19T03:31:37;22.40;62.70
46159;DHT22;31888;44.512;26.104;2022-07-19T03:33:41;22.50;62.70
46159;DHT22;31888;44.512;26.104;2022-07-19T03:35:48;22.80;62.10
46159;DHT22;31888;44.512;26.104;2022-07-19T03:37:52;23.20;61.90
46159;DHT22;31888;44.512;26.104;2022-07-19T03:39:57;23.50;60.50
46159;DHT22;31888;44.512;26.104;2022-07-19T03:42:02;23.80;60.00
46159;DHT22;31888;44.512;26.104;2022-07-19T03:44:06;24.10;59.60
46159;DHT22;31888;44.512;26.104;2022-07-19T03:46:11;24.50;59.70
46159;DHT22;31888;44.512;26.104;2022-07-19T03:48:16;24.70;58.50
46159;DHT22;31888;44.512;26.104;2022-07-19T03:50:21;24.80;59.00
46159;DHT22;31888;44.512;26.104;2022-07-19T03:52:27;25.10;58.00
46159;DHT22;31888;44.512;26.104;2022-07-19T03:54:31;25.30;57.90
46159;DHT22;31888;44.512;26.104;2022-07-19T03:56:36;25.60;57.30
46159;DHT22;31888;44.512;26.104;2022-07-19T03:58:40;25.80;57.50
46159;DHT22;31888;44.512;26.104;2022-07-19T04:00:45;26.00;57.20
46159;DHT22;31888;44.512;26.104;2022-07-19T04:02:49;26.20;56.70
46159;DHT22;31888;44.512;26.104;2022-07-19T04:04:54;26.30;56.40
46159;DHT22;31888;44.512;26.104;2022-07-19T04:07:01;26.60;56.30
46159;DHT22;31888;44.512;26.104;2022-07-19T04:09:07;26.90;55.50
46159;DHT22;31888;44.512;26.104;2022-07-19T04:11:11;27.00;55.50
46159;DHT22;31888;44.512;26.104;2022-07-19T04:13:16;27.10;55.00
46159;DHT22;31888;44.512;26.104;2022-07-19T04:15:20;27.30;54.60
46159;DHT22;31888;44.512;26.104;2022-07-19T04:17:25;27.50;54.40
46159;DHT22;31888;44.512;26.104;2022-07-19T04:19:30;27.50;53.60
46159;DHT22;31888;44.512;26.104;2022-07-19T04:21:34;27.00;55.00
46159;DHT22;31888;44.512;26.104;2022-07-19T04:23:39;26.90;55.10
46159;DHT22;31888;44.512;26.104;2022-07-19T04:25:46;27.20;55.30
46159;DHT22;31888;44.512;26.104;2022-07-19T04:27:50;27.60;54.70
46159;DHT22;31888;44.512;26.104;2022-07-19T04:29:54;27.80;53.90
46159;DHT22;31888;44.512;26.104;2022-07-19T04:31:59;28.00;53.60
46159;DHT22;31888;44.512;26.104;2022-07-19T04:34:04;28.20;54.20
46159;DHT22;31888;44.512;26.104;2022-07-19T04:36:08;28.50;53.00
46159;DHT22;31888;44.512;26.104;2022-07-19T04:38:13;28.70;53.20
46159;DHT22;31888;44.512;26.104;2022-07-19T04:40:18;28.90;53.10
46159;DHT22;31888;44.512;26.104;2022-07-19T04:42:23;29.10;51.90
46159;DHT22;31888;44.512;26.104;2022-07-19T04:44:28;29.30;52.10
46159;DHT22;31888;44.512;26.104;2022-07-19T04:46:37;29.40;51.80
46159;DHT22;31888;44.512;26.104;2022-07-19T04:49:06;29.50;52.00
46159;DHT22;31888;44.512;26.104;2022-07-19T04:51:10;29.40;51.30
46159;DHT22;31888;44.512;26.104;2022-07-19T04:53:15;29.30;51.60
46159;DHT22;31888;44.512;26.104;2022-07-19T04:55:19;29.20;51.40
46159;DHT22;31888;44.512;26.104;2022-07-19T04:57:25;28.90;52.10
46159;DHT22;31888;44.512;26.104;2022-07-19T04:59:29;28.30;52.30
46159;DHT22;31888;44.512;26.104;2022-07-19T05:01:34;27.90;52.50
46159;DHT22;31888;44.512;26.104;2022-07-19T05:03:39;27.80;52.60
46159;DHT22;31888;44.512;26.104;2022-07-19T05:05:43;27.60;53.10
46159;DHT22;31888;44.512;26.104;2022-07-19T05:07:48;27.50;53.70
46159;DHT22;31888;44.512;26.104;2022-07-19T05:09:54;26.60;54.10
46159;DHT22;31888;44.512;26.104;2022-07-19T05:12:05;26.40;54.70
46159;DHT22;31888;44.512;26.104;2022-07-19T05:14:11;26.60;55.30
46159;DHT22;31888;44.512;26.104;2022-07-19T05:16:16;26.90;55.00
46159;DHT22;31888;44.512;26.104;2022-07-19T05:18:20;26.90;55.20
46159;DHT22;31888;44.512;26.104;2022-07-19T05:20:25;27.40;54.50
46159;DHT22;31888;44.512;26.104;2022-07-19T05:22:29;27.40;54.60
46159;DHT22;31888;44.512;26.104;2022-07-19T05:24:34;27.70;54.10
46159;DHT22;31888;44.512;26.104;2022-07-19T05:26:38;28.10;53.20
46159;DHT22;31888;44.512;26.104;2022-07-19T05:28:42;28.00;52.80
46159;DHT22;31888;44.512;26.104;2022-07-19T05:30:48;28.10;52.50
46159;DHT22;31888;44.512;26.104;2022-07-19T05:32:53;27.90;52.20
46159;DHT22;31888;44.512;26.104;2022-07-19T05:34:57;27.20;53.00
46159;DHT22;31888;44.512;26.104;2022-07-19T05:37:02;27.20;54.00
46159;DHT22;31888;44.512;26.104;2022-07-19T05:39:06;27.20;54.10
46159;DHT22;31888;44.512;26.104;2022-07-19T05:41:11;27.40;53.40
46159;DHT22;31888;44.512;26.104;2022-07-19T05:43:15;27.40;53.30
46159;DHT22;31888;44.512;26.104;2022-07-19T05:45:20;27.40;53.00
46159;DHT22;31888;44.512;26.104;2022-07-19T05:47:26;27.20;52.00
46159;DHT22;31888;44.512;26.104;2022-07-19T05:49:30;27.10;53.10
46159;DHT22;31888;44.512;26.104;2022-07-19T05:51:36;27.50;52.10
46159;DHT22;31888;44.512;26.104;2022-07-19T05:53:41;27.70;52.00
46159;DHT22;31888;44.512;26.104;2022-07-19T05:55:45;27.40;51.50
46159;DHT22;31888;44.512;26.104;2022-07-19T05:57:50;27.30;52.00
46159;DHT22;31888;44.512;26.104;2022-07-19T05:59:55;27.30;52.30
46159;DHT22;31888;44.512;26.104;2022-07-19T06:02:01;27.00;52.70
46159;DHT22;31888;44.512;26.104;2022-07-19T06:04:08;27.10;52.60
46159;DHT22;31888;44.512;26.104;2022-07-19T06:06:12;27.00;53.00
46159;DHT22;31888;44.512;26.104;2022-07-19T06:08:18;27.00;52.10
46159;DHT22;31888;44.512;26.104;2022-07-19T06:10:23;27.00;52.30
46159;DHT22;31888;44.512;26.104;2022-07-19T06:12:27;27.20;53.10
46159;DHT22;31888;44.512;26.104;2022-07-19T06:14:31;27.70;52.10
46159;DHT22;31888;44.512;26.104;2022-07-19T06:16:37;27.80;51.60
46159;DHT22;31888;44.512;26.104;2022-07-19T06:18:43;27.70;52.00
46159;DHT22;31888;44.512;26.104;2022-07-19T06:20:49;27.80;51.60
46159;DHT22;31888;44.512;26.104;2022-07-19T06:22:54;27.40;51.10
46159;DHT22;31888;44.512;26.104;2022-07-19T06:25:01;27.60;51.20
46159;DHT22;31888;44.512;26.104;2022-07-19T06:27:06;27.90;49.60
46159;DHT22;31888;44.512;26.104;2022-07-19T06:29:10;28.20;50.70
46159;DHT22;31888;44.512;26.104;2022-07-19T06:31:15;28.50;50.60
46159;DHT22;31888;44.512;26.104;2022-07-19T06:33:21;29.20;49.60
46159;DHT22;31888;44.512;26.104;2022-07-19T06:35:25;29.10;48.90
46159;DHT22;31888;44.512;26.104;2022-07-19T06:37:31;29.00;48.70
46159;DHT22;31888;44.512;26.104;2022-07-19T06:39:35;28.80;48.70
46159;DHT22;31888;44.512;26.104;2022-07-19T06:41:40;28.40;48.70
46159;DHT22;31888;44.512;26.104;2022-07-19T06:43:53;28.20;49.90
46159;DHT22;31888;44.512;26.104;2022-07-19T06:45:57;28.30;48.00
46159;DHT22;31888;44.512;26.104;2022-07-19T06:48:02;28.30;48.00
46159;DHT22;31888;44.512;26.104;2022-07-19T06:50:07;28.50;47.40
46159;DHT22;31888;44.512;26.104;2022-07-19T06:52:36;28.70;47.20
46159;DHT22;31888;44.512;26.104;2022-07-19T06:54:41;29.00;47.80
46159;DHT22;31888;44.512;26.104;2022-07-19T06:56:46;29.20;48.20
46159;DHT22;31888;44.512;26.104;2022-07-19T06:58:51;28.80;47.60
46159;DHT22;31888;44.512;26.104;2022-07-19T07:00:55;29.10;47.60
46159;DHT22;31888;44.512;26.104;2022-07-19T07:03:00;29.60;47.80
46159;DHT22;31888;44.512;26.104;2022-07-19T07:05:05;30.00;46.30
46159;DHT22;31888;44.512;26.104;2022-07-19T07:07:13;29.70;46.90
46159;DHT22;31888;44.512;26.104;2022-07-19T07:09:20;29.40;47.30
46159;DHT22;31888;44.512;26.104;2022-07-19T07:11:24;29.50;47.20
46159;DHT22;31888;44.512;26.104;2022-07-19T07:13:29;30.00;46.50
46159;DHT22;31888;44.512;26.104;2022-07-19T07:15:36;30.10;45.10
46159;DHT22;31888;44.512;26.104;2022-07-19T07:17:41;29.60;45.20
46159;DHT22;31888;44.512;26.104;2022-07-19T07:19:46;29.70;46.50
46159;DHT22;31888;44.512;26.104;2022-07-19T07:21:50;30.00;45.80
46159;DHT22;31888;44.512;26.104;2022-07-19T07:23:55;30.90;44.70
46159;DHT22;31888;44.512;26.104;2022-07-19T07:26:01;31.10;44.40
46159;DHT22;31888;44.512;26.104;2022-07-19T07:28:06;30.70;45.30
46159;DHT22;31888;44.512;26.104;2022-07-19T07:30:11;30.70;44.20
46159;DHT22;31888;44.512;26.104;2022-07-19T07:32:15;30.80;44.60
46159;DHT22;31888;44.512;26.104;2022-07-19T07:34:20;30.70;45.50
46159;DHT22;31888;44.512;26.104;2022-07-19T07:36:25;30.50;44.90
46159;DHT22;31888;44.512;26.104;2022-07-19T07:38:29;30.80;45.10
46159;DHT22;31888;44.512;26.104;2022-07-19T07:40:34;31.50;44.80
46159;DHT22;31888;44.512;26.104;2022-07-19T07:42:39;31.50;44.50
46159;DHT22;31888;44.512;26.104;2022-07-19T07:44:44;31.60;44.70
46159;DHT22;31888;44.512;26.104;2022-07-19T07:46:48;31.70;43.40
46159;DHT22;31888;44.512;26.104;2022-07-19T07:48:53;31.50;43.80
46159;DHT22;31888;44.512;26.104;2022-07-19T07:50:58;31.40;42.90
46159;DHT22;31888;44.512;26.104;2022-07-19T07:53:28;31.40;43.80
46159;DHT22;31888;44.512;26.104;2022-07-19T07:55:45;31.90;44.00
46159;DHT22;31888;44.512;26.104;2022-07-19T07:57:52;32.00;43.20
46159;DHT22;31888;44.512;26.104;2022-07-19T07:59:57;32.00;43.90
46159;DHT22;31888;44.512;26.104;2022-07-19T08:02:02;31.90;43.40
46159;DHT22;31888;44.512;26.104;2022-07-19T08:04:06;32.20;42.90
46159;DHT22;31888;44.512;26.104;2022-07-19T08:06:11;32.40;42.70
46159;DHT22;31888;44.512;26.104;2022-07-19T08:08:16;32.30;42.20
46159;DHT22;31888;44.512;26.104;2022-07-19T08:10:21;32.40;42.50
46159;DHT22;31888;44.512;26.104;2022-07-19T08:12:37;32.70;42.60
46159;DHT22;31888;44.512;26.104;2022-07-19T08:14:45;32.80;42.80
46159;DHT22;31888;44.512;26.104;2022-07-19T08:16:54;32.60;42.80
46159;DHT22;31888;44.512;26.104;2022-07-19T08:18:59;32.60;41.90
46159;DHT22;31888;44.512;26.104;2022-07-19T08:21:03;32.40;42.20
46159;DHT22;31888;44.512;26.104;2022-07-19T08:23:13;32.50;42.30
46159;DHT22;31888;44.512;26.104;2022-07-19T08:25:19;32.50;41.00
46159;DHT22;31888;44.512;26.104;2022-07-19T08:27:25;32.80;41.20
46159;DHT22;31888;44.512;26.104;2022-07-19T08:29:31;32.80;40.70
46159;DHT22;31888;44.512;26.104;2022-07-19T08:31:58;33.10;41.00
46159;DHT22;31888;44.512;26.104;2022-07-19T08:34:29;33.30;40.90
46159;DHT22;31888;44.512;26.104;2022-07-19T08:36:34;34.00;40.00
46159;DHT22;31888;44.512;26.104;2022-07-19T08:38:42;33.60;40.50
46159;DHT22;31888;44.512;26.104;2022-07-19T08:40:52;33.20;41.60
46159;DHT22;31888;44.512;26.104;2022-07-19T08:43:03;33.10;41.70
46159;DHT22;31888;44.512;26.104;2022-07-19T08:45:16;33.10;40.60
46159;DHT22;31888;44.512;26.104;2022-07-19T08:47:25;33.10;41.10
46159;DHT22;31888;44.512;26.104;2022-07-19T08:49:35;33.40;41.20
46159;DHT22;31888;44.512;26.104;2022-07-19T08:51:42;33.70;40.90
46159;DHT22;31888;44.512;26.104;2022-07-19T08:53:51;33.30;40.30
46159;DHT22;31888;44.512;26.104;2022-07-19T08:55:55;33.10;40.60
46159;DHT22;31888;44.512;26.104;2022-07-19T08:58:02;32.90;40.80
46159;DHT22;31888;44.512;26.104;2022-07-19T09:00:13;32.40;41.50
46159;DHT22;31888;44.512;26.104;2022-07-19T09:02:18;32.40;41.50
46159;DHT22;31888;44.512;26.104;2022-07-19T09:04:23;32.30;40.70
46159;DHT22;31888;44.512;26.104;2022-07-19T09:06:38;32.30;41.10
46159;DHT22;31888;44.512;26.104;2022-07-19T09:08:46;32.10;42.00
46159;DHT22;31888;44.512;26.104;2022-07-19T09:10:51;31.70;41.30
46159;DHT22;31888;44.512;26.104;2022-07-19T09:13:11;32.00;41.80
46159;DHT22;31888;44.512;26.104;2022-07-19T09:15:16;32.60;41.20
46159;DHT22;31888;44.512;26.104;2022-07-19T09:17:22;32.80;41.60
46159;DHT22;31888;44.512;26.104;2022-07-19T09:19:34;32.70;41.10
46159;DHT22;31888;44.512;26.104;2022-07-19T09:21:51;31.90;41.80
46159;DHT22;31888;44.512;26.104;2022-07-19T09:23:58;32.30;42.30
46159;DHT22;31888;44.512;26.104;2022-07-19T09:26:04;32.50;41.50
46159;DHT22;31888;44.512;26.104;2022-07-19T09:28:12;32.80;41.60
46159;DHT22;31888;44.512;26.104;2022-07-19T09:30:32;33.00;42.40
46159;DHT22;31888;44.512;26.104;2022-07-19T09:33:05;33.50;41.20
46159;DHT22;31888;44.512;26.104;2022-07-19T09:35:17;33.70;41.30
46159;DHT22;31888;44.512;26.104;2022-07-19T09:37:23;33.90;40.70
46159;DHT22;31888;44.512;26.104;2022-07-19T09:39:32;34.00;40.90
46159;DHT22;31888;44.512;26.104;2022-07-19T09:41:55;34.00;41.20
46159;DHT22;31888;44.512;26.104;2022-07-19T09:44:07;33.90;40.20
46159;DHT22;31888;44.512;26.104;2022-07-19T09:46:31;33.50;41.10
46159;DHT22;31888;44.512;26.104;2022-07-19T09:48:42;32.90;40.70
46159;DHT22;31888;44.512;26.104;2022-07-19T09:50:49;32.40;41.60
46159;DHT22;31888;44.512;26.104;2022-07-19T09:52:54;31.90;42.20
46159;DHT22;31888;44.512;26.104;2022-07-19T09:55:02;31.20;42.20
46159;DHT22;31888;44.512;26.104;2022-07-19T09:57:07;31.50;42.40
46159;DHT22;31888;44.512;26.104;2022-07-19T09:59:13;31.70;41.70
46159;DHT22;31888;44.512;26.104;2022-07-19T10:01:18;31.50;42.10
46159;DHT22;31888;44.512;26.104;2022-07-19T10:03:22;31.40;42.10
46159;DHT22;31888;44.512;26.104;2022-07-19T10:05:28;31.30;42.60
46159;DHT22;31888;44.512;26.104;2022-07-19T10:07:35;31.30;42.00
46159;DHT22;31888;44.512;26.104;2022-07-19T10:09:39;31.30;42.10
46159;DHT22;31888;44.512;26.104;2022-07-19T10:11:44;31.30;42.00
46159;DHT22;31888;44.512;26.104;2022-07-19T10:13:49;31.20;42.10
46159;DHT22;31888;44.512;26.104;2022-07-19T10:15:55;31.60;41.80
46159;DHT22;31888;44.512;26.104;2022-07-19T10:18:11;32.10;41.30
46159;DHT22;31888;44.512;26.104;2022-07-19T10:20:16;32.50;41.50
46159;DHT22;31888;44.512;26.104;2022-07-19T10:22:23;32.80;41.70
46159;DHT22;31888;44.512;26.104;2022-07-19T10:25:09;32.60;41.40
46159;DHT22;31888;44.512;26.104;2022-07-19T10:27:15;32.50;41.70
46159;DHT22;31888;44.512;26.104;2022-07-19T10:29:23;32.80;41.40
46159;DHT22;31888;44.512;26.104;2022-07-19T10:31:28;33.00;40.90
46159;DHT22;31888;44.512;26.104;2022-07-19T10:33:36;33.10;40.70
46159;DHT22;31888;44.512;26.104;2022-07-19T10:35:40;33.10;41.10
46159;DHT22;31888;44.512;26.104;2022-07-19T10:37:46;33.00;40.90
46159;DHT22;31888;44.512;26.104;2022-07-19T10:39:57;33.00;41.30
46159;DHT22;31888;44.512;26.104;2022-07-19T10:42:15;33.20;41.60
46159;DHT22;31888;44.512;26.104;2022-07-19T10:44:21;33.00;41.50
46159;DHT22;31888;44.512;26.104;2022-07-19T10:46:30;32.80;40.90
46159;DHT22;31888;44.512;26.104;2022-07-19T10:48:36;32.70;41.20
46159;DHT22;31888;44.512;26.104;2022-07-19T10:50:56;33.00;40.80
46159;DHT22;31888;44.512;26.104;2022-07-19T10:53:01;33.00;41.10
46159;DHT22;31888;44.512;26.104;2022-07-19T10:55:24;33.10;41.00
46159;DHT22;31888;44.512;26.104;2022-07-19T10:57:37;33.40;40.70
46159;DHT22;31888;44.512;26.104;2022-07-19T10:59:42;33.50;40.90
46159;DHT22;31888;44.512;26.104;2022-07-19T11:01:54;33.20;40.80
46159;DHT22;31888;44.512;26.104;2022-07-19T11:04:22;33.20;41.10
46159;DHT22;31888;44.512;26.104;2022-07-19T11:06:28;33.30;41.10
46159;DHT22;31888;44.512;26.104;2022-07-19T11:08:32;33.20;41.00
46159;DHT22;31888;44.512;26.104;2022-07-19T11:10:37;33.20;41.10
46159;DHT22;31888;44.512;26.104;2022-07-19T11:12:43;33.30;40.80
46159;DHT22;31888;44.512;26.104;2022-07-19T11:14:48;33.30;41.10
46159;DHT22;31888;44.512;26.104;2022-07-19T11:17:12;33.30;41.60
46159;DHT22;31888;44.512;26.104;2022-07-19T11:19:16;33.20;40.40
46159;DHT22;31888;44.512;26.104;2022-07-19T11:21:21;33.20;41.40
46159;DHT22;31888;44.512;26.104;2022-07-19T11:23:29;33.20;41.00
46159;DHT22;31888;44.512;26.104;2022-07-19T11:25:37;33.30;40.40
46159;DHT22;31888;44.512;26.104;2022-07-19T11:27:46;33.30;40.70
46159;DHT22;31888;44.512;26.104;2022-07-19T11:29:54;33.50;40.60
46159;DHT22;31888;44.512;26.104;2022-07-19T11:31:59;33.60;40.90
46159;DHT22;31888;44.512;26.104;2022-07-19T11:34:11;33.50;40.80
46159;DHT22;31888;44.512;26.104;2022-07-19T11:36:17;33.40;41.40
46159;DHT22;31888;44.512;26.104;2022-07-19T11:38:23;33.40;43.20
46159;DHT22;31888;44.512;26.104;2022-07-19T11:40:33;33.40;42.70
46159;DHT22;31888;44.512;26.104;2022-07-19T11:42:40;33.40;42.50
46159;DHT22;31888;44.512;26.104;2022-07-19T11:45:24;33.50;42.10
46159;DHT22;31888;44.512;26.104;2022-07-19T11:47:33;33.60;41.00
46159;DHT22;31888;44.512;26.104;2022-07-19T11:49:38;33.90;40.60
46159;DHT22;31888;44.512;26.104;2022-07-19T11:51:43;33.90;41.00
46159;DHT22;31888;44.512;26.104;2022-07-19T11:53:49;34.10;40.50
46159;DHT22;31888;44.512;26.104;2022-07-19T11:55:54;34.10;40.80
46159;DHT22;31888;44.512;26.104;2022-07-19T11:58:05;33.90;40.80
46159;DHT22;31888;44.512;26.104;2022-07-19T12:00:13;34.10;40.60
46159;DHT22;31888;44.512;26.104;2022-07-19T12:02:18;34.00;41.50
46159;DHT22;31888;44.512;26.104;2022-07-19T12:04:36;34.10;40.50
46159;DHT22;31888;44.512;26.104;2022-07-19T12:06:42;34.20;40.10
46159;DHT22;31888;44.512;26.104;2022-07-19T12:08:47;34.40;41.10
46159;DHT22;31888;44.512;26.104;2022-07-19T12:10:53;34.20;41.60
46159;DHT22;31888;44.512;26.104;2022-07-19T12:12:58;34.40;41.10
46159;DHT22;31888;44.512;26.104;2022-07-19T12:15:06;34.50;41.30
46159;DHT22;31888;44.512;26.104;2022-07-19T12:17:22;34.70;40.70
46159;DHT22;31888;44.512;26.104;2022-07-19T12:19:29;34.80;39.90
46159;DHT22;31888;44.512;26.104;2022-07-19T12:22:04;34.70;40.20
46159;DHT22;31888;44.512;26.104;2022-07-19T12:24:51;34.90;40.30
46159;DHT22;31888;44.512;26.104;2022-07-19T12:27:06;34.70;39.90
46159;DHT22;31888;44.512;26.104;2022-07-19T12:29:19;34.40;40.40
46159;DHT22;31888;44.512;26.104;2022-07-19T12:31:25;34.70;39.80
46159;DHT22;31888;44.512;26.104;2022-07-19T12:33:33;34.60;40.00
46159;DHT22;31888;44.512;26.104;2022-07-19T12:35:41;34.50;40.40
46159;DHT22;31888;44.512;26.104;2022-07-19T12:37:48;34.50;40.30
46159;DHT22;31888;44.512;26.104;2022-07-19T12:40:07;34.60;40.70
46159;DHT22;31888;44.512;26.104;2022-07-19T12:42:13;34.50;40.30
46159;DHT22;31888;44.512;26.104;2022-07-19T12:44:20;34.00;41.60
46159;DHT22;31888;44.512;26.104;2022-07-19T12:46:25;34.10;41.30
46159;DHT22;31888;44.512;26.104;2022-07-19T12:48:35;34.30;40.00
46159;DHT22;31888;44.512;26.104;2022-07-19T12:50:44;34.20;40.40
46159;DHT22;31888;44.512;26.104;2022-07-19T12:52:53;34.10;40.70
46159;DHT22;31888;44.512;26.104;2022-07-19T12:54:58;34.20;40.00
46159;DHT22;31888;44.512;26.104;2022-07-19T12:57:06;33.90;40.80
46159;DHT22;31888;44.512;26.104;2022-07-19T12:59:12;33.90;40.90
46159;DHT22;31888;44.512;26.104;2022-07-19T13:01:33;33.90;41.10
46159;DHT22;31888;44.512;26.104;2022-07-19T13:03:38;34.20;41.00
46159;DHT22;31888;44.512;26.104;2022-07-19T13:05:43;34.50;40.60
46159;DHT22;31888;44.512;26.104;2022-07-19T13:07:48;34.40;40.40
46159;DHT22;31888;44.512;26.104;2022-07-19T13:09:52;34.40;40.70